createdAt,value
2019-01-26T00:03:57.396Z,95.77
2019-01-26T00:09:01.616Z,95.76
2019-01-26T00:14:45.295Z,96.04
2019-01-26T00:19:49.512Z,95.94
2019-01-26T00:24:53.810Z,96.19
2019-01-26T00:29:58.038Z,96.26
2019-01-26T00:35:02.277Z,96.31
2019-01-26T00:50:45.465Z,96.78
2019-01-26T01:01:11.048Z,96.80
2019-01-26T01:06:26.575Z,96.80
2019-01-26T01:16:40.977Z,96.54
2019-01-26T01:27:02.635Z,96.61
2019-01-26T01:32:06.861Z,96.79
2019-01-26T01:37:11.162Z,96.78
2019-01-26T01:42:15.396Z,96.78
2019-01-26T01:47:38.756Z,96.90
2019-01-26T01:52:43.055Z,97.03
2019-01-26T02:03:08.772Z,97.16
2019-01-26T02:13:42.032Z,97.30
2019-01-26T02:18:46.564Z,97.35
2019-01-26T02:23:50.861Z,97.28
2019-01-26T02:29:34.544Z,97.37
2019-01-26T02:40:26.900Z,97.35
2019-01-26T02:50:43.881Z,97.32
2019-01-26T02:55:48.112Z,97.43
2019-01-26T03:00:52.360Z,97.42
2019-01-26T03:06:07.847Z,97.43
2019-01-26T03:11:12.111Z,97.37
2019-01-26T03:16:16.668Z,97.47
2019-01-26T03:21:21.209Z,97.54
2019-01-26T03:26:44.351Z,97.52
2019-01-26T03:31:48.578Z,97.54
2019-01-26T03:37:11.941Z,97.50
2019-01-26T03:42:16.168Z,97.52
2019-01-26T03:47:20.420Z,97.46
2019-01-26T03:52:43.712Z,97.48
2019-01-26T04:02:58.109Z,97.59
2019-01-26T04:08:21.370Z,97.40
2019-01-26T04:18:35.672Z,97.36
2019-01-26T04:23:58.887Z,97.27
2019-01-26T04:29:03.125Z,97.33
2019-01-26T04:34:07.428Z,97.32
2019-01-26T04:39:11.656Z,97.27
2019-01-26T04:44:34.950Z,97.20
2019-01-26T04:49:39.289Z,97.17
2019-01-26T04:54:43.514Z,97.19
2019-01-26T05:10:49.344Z,97.35
2019-01-26T05:16:32.944Z,97.34
2019-01-26T05:21:37.177Z,97.26
2019-01-26T05:26:41.403Z,97.18
2019-01-26T05:42:23.430Z,97.54
2019-01-26T06:03:15.859Z,97.47
2019-01-26T06:13:29.676Z,97.25
2019-01-26T06:18:52.970Z,97.20
2019-01-26T06:29:06.973Z,97.00
2019-01-26T06:39:40.502Z,97.01
2019-01-26T06:45:03.802Z,97.08
2019-01-26T06:50:48.312Z,97.10
2019-01-26T07:06:30.945Z,97.25
2019-01-26T07:16:56.964Z,97.31
2019-01-26T07:32:21.786Z,97.52
2019-01-26T07:37:45.093Z,97.49
2019-01-26T07:42:49.332Z,97.54
2019-01-26T07:48:16.790Z,97.39
2019-01-26T07:53:18.591Z,97.45
2019-01-26T07:58:22.816Z,97.39
2019-01-26T08:03:46.117Z,97.45
2019-01-26T08:08:50.345Z,97.54
2019-01-26T08:13:54.971Z,97.50
2019-01-26T08:19:11.231Z,97.50
2019-01-26T08:24:15.463Z,97.32
2019-01-26T08:29:38.768Z,97.08
2019-01-26T08:39:52.544Z,96.79
2019-01-26T08:44:56.775Z,96.71
2019-01-26T08:50:21.099Z,96.50
2019-01-26T08:56:04.783Z,96.39
2019-01-26T09:06:57.639Z,96.23
2019-01-26T09:12:01.872Z,96.14
2019-01-26T09:22:46.679Z,95.78
2019-01-26T09:33:45.477Z,95.17
2019-01-26T09:38:49.717Z,95.17
2019-01-26T09:43:53.981Z,95.02
2019-01-26T09:48:58.205Z,95.08
2019-01-26T10:04:41.873Z,94.95
2019-01-26T10:10:05.096Z,95.17
2019-01-26T10:15:49.948Z,95.11
2019-01-26T10:20:54.328Z,94.84
2019-01-26T10:25:58.857Z,94.36
2019-01-26T10:36:52.492Z,93.92
2019-01-26T10:42:15.719Z,93.21
2019-01-26T10:47:20.000Z,92.51
2019-01-26T10:52:43.299Z,92.47
2019-01-26T10:58:06.604Z,92.23
2019-01-26T11:03:29.916Z,92.08
2019-01-26T11:09:13.904Z,91.79
2019-01-26T11:14:37.209Z,91.44
2019-01-26T11:35:31.424Z,91.10
2019-01-26T11:40:35.706Z,91.28
2019-01-26T11:45:58.943Z,91.09
2019-01-26T11:51:22.091Z,90.57
2019-01-26T12:02:09.880Z,90.13
2019-01-26T12:07:20.207Z,89.57
2019-01-26T12:12:43.540Z,89.38
2019-01-26T12:17:48.179Z,89.42
2019-01-26T12:22:52.430Z,88.71
2019-01-26T12:27:56.666Z,88.79
2019-01-26T12:33:19.984Z,88.95
2019-01-26T12:38:43.281Z,88.64
2019-01-26T12:44:06.576Z,88.62
2019-01-26T12:59:49.611Z,88.66
2019-01-26T13:05:33.287Z,88.69
2019-01-26T13:16:28.779Z,88.76
2019-01-26T13:21:33.015Z,88.80
2019-01-26T13:26:37.236Z,89.04
2019-01-26T13:31:41.476Z,88.74
2019-01-26T13:41:55.897Z,89.06
2019-01-26T13:47:19.403Z,89.44
2019-01-26T13:52:24.035Z,89.94
2019-01-26T14:02:38.398Z,90.11
2019-01-26T14:08:01.762Z,89.98
2019-01-26T14:13:45.481Z,88.97
2019-01-26T14:18:50.075Z,88.29
2019-01-26T14:34:33.423Z,88.05
2019-01-26T14:39:49.725Z,88.04
2019-01-26T14:45:05.607Z,88.15
2019-01-26T14:50:49.896Z,87.78
2019-01-26T14:56:13.201Z,87.62
2019-01-26T15:01:17.468Z,87.76
2019-01-26T15:06:40.772Z,87.78
2019-01-26T15:11:45.059Z,88.18
2019-01-26T15:16:49.312Z,88.03
2019-01-26T15:27:41.825Z,88.05
2019-01-26T15:33:05.802Z,88.05
2019-01-26T15:38:29.103Z,88.03
2019-01-26T15:43:45.482Z,88.48
2019-01-26T15:54:00.013Z,88.69
2019-01-26T15:59:23.323Z,88.98
2019-01-26T16:04:27.556Z,89.16
2019-01-26T16:09:51.499Z,89.46
2019-01-26T16:14:56.881Z,89.32
2019-01-26T16:30:40.775Z,89.89
2019-01-26T16:46:24.366Z,90.22
2019-01-26T16:56:57.689Z,90.61
2019-01-26T17:02:20.999Z,90.87
2019-01-26T17:07:25.369Z,91.05
2019-01-26T17:12:29.607Z,91.07
2019-01-26T17:17:33.867Z,91.03
2019-01-26T17:22:38.179Z,90.86
2019-01-26T17:33:11.835Z,90.61
2019-01-26T17:38:16.100Z,90.06
2019-01-26T17:43:20.339Z,90.01
2019-01-26T17:48:24.584Z,89.82
2019-01-26T17:53:29.208Z,89.80
2019-01-26T17:58:33.475Z,90.03
2019-01-26T18:03:37.704Z,89.71
2019-01-26T18:13:52.098Z,90.33
2019-01-26T18:18:56.328Z,90.62
2019-01-26T18:34:39.902Z,90.95
2019-01-26T18:39:56.203Z,91.19
2019-01-26T18:50:56.105Z,91.42
2019-01-26T18:55:57.631Z,91.41
2019-01-26T19:01:01.857Z,91.34
2019-01-26T19:06:25.150Z,91.23
2019-01-26T19:16:58.568Z,91.14
2019-01-26T19:27:31.544Z,91.35
2019-01-26T19:32:35.784Z,91.56
2019-01-26T19:37:40.076Z,91.87
2019-01-26T19:43:03.391Z,92.07
2019-01-26T19:48:26.733Z,92.09
2019-01-26T19:53:50.026Z,91.95
2019-01-26T19:58:54.252Z,92.05
2019-01-26T20:04:17.543Z,92.12
2019-01-26T20:09:21.787Z,92.35
2019-01-26T20:19:54.962Z,92.32
2019-01-26T20:30:46.892Z,92.71
2019-01-26T20:36:10.199Z,92.42
2019-01-26T20:41:14.559Z,92.23
2019-01-26T20:46:18.800Z,92.20
2019-01-26T21:02:01.883Z,92.48
2019-01-26T21:12:16.537Z,92.24
2019-01-26T21:17:20.832Z,92.16
2019-01-26T21:22:25.211Z,92.24
2019-01-26T21:27:29.436Z,92.18
2019-01-26T21:32:33.662Z,92.35
2019-01-26T21:37:37.906Z,92.28
2019-01-26T21:42:54.069Z,92.23
2019-01-26T21:47:58.408Z,92.25
2019-01-26T21:53:02.642Z,92.39
2019-01-26T21:58:46.266Z,92.44
2019-01-26T22:03:50.576Z,92.57
2019-01-26T22:09:13.976Z,92.55
2019-01-26T22:14:18.264Z,92.87
2019-01-26T22:19:41.564Z,93.48
2019-01-26T22:24:45.796Z,93.87
2019-01-26T22:30:28.076Z,94.26
2019-01-26T22:41:01.455Z,94.72
2019-01-26T22:46:17.576Z,95.07
2019-01-26T22:51:33.896Z,95.02
2019-01-26T22:56:50.112Z,95.04
2019-01-26T23:13:54.121Z,94.53
2019-01-26T23:25:27.999Z,94.42
2019-01-26T23:31:25.465Z,94.20
2019-01-26T23:36:29.707Z,94.05
2019-01-26T23:41:34.671Z,93.75
2019-01-26T23:46:38.966Z,93.49
